Time;durP1;ratioP1;P1;durP2;ratioP2;P2;SDS_P1;SDS_P2;PMS_P1;PMS_P2;Temp;Humidity;BMP_temperature;BMP_pressure;BME280_temperature;BME280_humidity;BME280_pressure;Samples;Min_cycle;Max_cycle;Signal;HPM_P1;HPM_P2
2023/04/16 00:00:09;;;;;;;27.30;20.97;;;10.60;99.90;;;;;;5051989;28;20222;-72
2023/04/16 00:02:35;;;;;;;28.17;22.10;;;10.50;99.90;;;;;;5050589;28;20243;-75
2023/04/16 00:05:01;;;;;;;26.57;20.10;;;10.60;99.90;;;;;;5043315;28;20571;-74
2023/04/16 00:07:27;;;;;;;29.87;21.73;;;10.60;99.90;;;;;;5051649;28;20219;-75
2023/04/16 00:09:52;;;;;;;29.70;22.23;;;10.60;99.90;;;;;;5052411;28;20244;-72
2023/04/16 00:12:18;;;;;;;30.23;22.00;;;10.60;99.90;;;;;;5051547;28;20211;-74
2023/04/16 00:14:43;;;;;;;29.23;22.60;;;10.60;99.90;;;;;;5049243;28;20695;-74
2023/04/16 00:17:09;;;;;;;31.03;22.30;;;10.60;99.90;;;;;;5051418;28;20228;-75
2023/04/16 00:19:35;;;;;;;29.30;22.13;;;10.60;99.90;;;;;;5049594;28;20250;-74
2023/04/16 00:22:01;;;;;;;27.07;21.30;;;10.60;99.90;;;;;;5051529;28;20266;-74
2023/04/16 00:24:26;;;;;;;28.27;21.37;;;10.60;99.90;;;;;;5047674;28;20182;-73
2023/04/16 00:26:52;;;;;;;34.33;22.87;;;10.60;99.90;;;;;;5048483;28;20223;-72
2023/04/16 00:29:17;;;;;;;32.77;23.63;;;10.60;99.90;;;;;;5051102;28;20215;-75
2023/04/16 00:31:43;;;;;;;29.67;22.70;;;10.60;99.90;;;;;;5051411;28;20706;-74
2023/04/16 00:34:09;;;;;;;31.73;23.33;;;10.60;99.90;;;;;;5048874;28;20238;-74
2023/04/16 00:36:35;;;;;;;32.73;21.80;;;10.60;99.90;;;;;;5051417;28;20276;-73
2023/04/16 00:39:00;;;;;;;28.27;22.27;;;10.60;99.90;;;;;;5051214;28;20690;-73
2023/04/16 00:41:26;;;;;;;29.60;22.13;;;10.60;99.90;;;;;;5041867;28;20208;-74
2023/04/16 00:43:52;;;;;;;30.33;22.57;;;10.60;99.90;;;;;;5046342;28;20225;-72
2023/04/16 00:46:24;;;;;;;28.57;21.57;;;10.60;99.90;;;;;;5047563;28;20196;-74
2023/04/16 00:48:53;;;;;;;27.63;22.43;;;10.60;99.90;;;;;;5047217;28;20203;-74
2023/04/16 00:51:20;;;;;;;29.93;23.10;;;10.60;99.90;;;;;;5049523;28;20207;-73
2023/04/16 00:53:46;;;;;;;28.73;21.43;;;10.50;99.90;;;;;;5051111;28;20343;-73
2023/04/16 00:56:12;;;;;;;27.60;21.03;;;10.60;99.90;;;;;;5047641;28;20324;-76
2023/04/16 00:58:38;;;;;;;30.20;21.57;;;10.50;99.90;;;;;;5048918;28;20207;-76
2023/04/16 01:01:04;;;;;;;30.47;21.43;;;10.50;99.90;;;;;;5050847;28;20263;-76
2023/04/16 01:03:38;;;;;;;29.27;21.80;;;10.40;99.90;;;;;;5051530;28;20172;-75
2023/04/16 01:06:04;;;;;;;29.40;19.70;;;10.50;99.90;;;;;;5047233;28;20597;-75
2023/04/16 01:08:30;;;;;;;30.20;21.63;;;10.50;99.90;;;;;;5050699;28;20227;-76
2023/04/16 01:10:56;;;;;;;26.07;20.30;;;10.50;99.90;;;;;;5051116;28;20216;-75
2023/04/16 01:13:21;;;;;;;28.27;21.27;;;10.50;99.90;;;;;;5049799;28;20212;-75
2023/04/16 01:15:47;;;;;;;28.87;20.13;;;10.50;99.90;;;;;;5050783;28;20417;-76
2023/04/16 01:18:17;;;;;;;27.73;20.30;;;10.50;99.90;;;;;;5042210;28;20299;-76
2023/04/16 01:20:43;;;;;;;25.90;20.33;;;10.50;99.90;;;;;;5050772;28;20203;-75
2023/04/16 01:23:08;;;;;;;26.27;20.67;;;10.50;99.90;;;;;;5050631;28;20265;-74
2023/04/16 01:25:34;;;;;;;29.07;21.83;;;10.50;99.90;;;;;;5050351;28;20227;-76
2023/04/16 01:28:00;;;;;;;28.10;20.70;;;10.50;99.90;;;;;;5047170;28;20207;-75
2023/04/16 01:30:25;;;;;;;29.53;20.63;;;10.60;99.90;;;;;;5047650;28;20179;-74
2023/04/16 01:32:51;;;;;;;28.93;20.87;;;10.50;99.90;;;;;;5047733;28;20218;-73
2023/04/16 01:35:17;;;;;;;25.03;19.53;;;10.50;99.90;;;;;;5046513;28;20221;-74
2023/04/16 01:37:43;;;;;;;26.83;20.60;;;10.50;99.90;;;;;;5050571;28;20214;-73
2023/04/16 01:40:09;;;;;;;29.67;21.07;;;10.50;99.90;;;;;;5050364;28;20186;-74
2023/04/16 01:42:34;;;;;;;29.00;20.87;;;10.40;99.90;;;;;;5051003;28;20258;-74
2023/04/16 01:45:00;;;;;;;28.70;20.40;;;10.40;99.90;;;;;;5048735;28;20211;-71
2023/04/16 01:47:26;;;;;;;27.03;19.20;;;10.40;99.90;;;;;;5049214;28;20223;-74
2023/04/16 01:49:52;;;;;;;26.53;20.03;;;10.40;99.90;;;;;;5045394;28;20683;-72
2023/04/16 01:52:18;;;;;;;25.57;19.60;;;10.40;99.90;;;;;;5048676;28;20175;-73
2023/04/16 01:54:43;;;;;;;27.33;19.83;;;10.40;99.90;;;;;;5050398;28;20759;-72
2023/04/16 01:57:10;;;;;;;27.47;20.67;;;10.40;99.90;;;;;;5045720;28;20239;-75
2023/04/16 01:59:36;;;;;;;27.93;19.43;;;10.40;99.90;;;;;;5046395;28;20254;-75
2023/04/16 02:02:13;;;;;;;26.93;19.63;;;10.40;99.90;;;;;;5050009;28;20208;-73
2023/04/16 02:04:40;;;;;;;26.60;19.07;;;10.30;99.90;;;;;;5040825;28;20290;-75
2023/04/16 02:07:06;;;;;;;25.13;19.83;;;10.30;99.90;;;;;;5046622;28;20687;-74
2023/04/16 02:09:34;;;;;;;24.13;18.33;;;10.30;99.90;;;;;;5054299;28;20172;-75
2023/04/16 02:12:01;;;;;;;29.10;20.47;;;10.30;99.90;;;;;;5054112;28;20619;-75
2023/04/16 02:14:27;;;;;;;25.47;18.73;;;10.30;99.90;;;;;;5047682;28;20212;-76
2023/04/16 02:16:52;;;;;;;24.20;19.07;;;10.40;99.90;;;;;;5050162;28;20212;-73
2023/04/16 02:19:18;;;;;;;24.63;18.90;;;10.30;99.90;;;;;;5053737;28;20180;-73
2023/04/16 02:21:44;;;;;;;26.47;19.67;;;10.20;99.90;;;;;;5050732;28;20187;-73
2023/04/16 02:24:10;;;;;;;25.20;18.67;;;10.30;99.90;;;;;;5043047;28;20203;-75
2023/04/16 02:26:35;;;;;;;26.70;19.93;;;10.30;99.90;;;;;;5047812;28;20303;-74
2023/04/16 02:29:01;;;;;;;24.37;18.97;;;10.30;99.90;;;;;;5051740;28;20310;-75
2023/04/16 02:31:27;;;;;;;26.07;19.20;;;10.20;99.90;;;;;;5053061;28;20207;-74
2023/04/16 02:33:53;;;;;;;25.33;19.47;;;10.20;99.90;;;;;;5049443;28;20188;-72
2023/04/16 02:36:19;;;;;;;29.90;20.37;;;10.20;99.90;;;;;;5044955;28;20609;-74
2023/04/16 02:38:45;;;;;;;32.93;19.30;;;10.20;99.90;;;;;;5042032;28;20212;-72
2023/04/16 02:41:10;;;;;;;27.70;19.43;;;10.20;99.90;;;;;;5040899;28;20306;-75
2023/04/16 02:43:36;;;;;;;26.07;19.27;;;10.20;99.90;;;;;;5043586;28;20627;-75
2023/04/16 02:46:02;;;;;;;26.63;20.10;;;10.20;99.90;;;;;;5050299;28;20238;-75
2023/04/16 02:48:27;;;;;;;28.67;20.83;;;10.20;99.90;;;;;;5047921;28;20641;-75
2023/04/16 02:50:53;;;;;;;29.93;20.67;;;10.10;99.90;;;;;;5048118;28;20208;-73
2023/04/16 02:53:19;;;;;;;28.20;19.93;;;10.20;99.90;;;;;;5048486;28;20303;-74
2023/04/16 02:55:54;;;;;;;30.77;20.93;;;10.10;99.90;;;;;;5045481;28;20575;-74
2023/04/16 02:58:22;;;;;;;31.23;21.40;;;10.10;99.90;;;;;;5046404;28;20234;-75
2023/04/16 03:00:48;;;;;;;29.97;21.73;;;10.10;99.90;;;;;;5048601;28;20551;-75
2023/04/16 03:03:14;;;;;;;29.10;22.13;;;10.10;99.90;;;;;;5050527;28;20315;-75
2023/04/16 03:05:40;;;;;;;31.07;20.67;;;10.10;99.90;;;;;;5050944;28;20294;-75
2023/04/16 03:08:06;;;;;;;36.77;24.07;;;10.10;99.90;;;;;;5052010;28;20224;-73
2023/04/16 03:10:31;;;;;;;30.03;21.97;;;10.00;99.90;;;;;;5052846;28;20694;-75
2023/04/16 03:12:57;;;;;;;33.77;23.20;;;10.10;99.90;;;;;;5053290;28;20179;-75
2023/04/16 03:15:24;;;;;;;32.13;22.93;;;10.00;99.90;;;;;;5048364;28;20219;-74
2023/04/16 03:17:50;;;;;;;35.33;22.87;;;10.10;99.90;;;;;;5042855;28;20215;-75
2023/04/16 03:20:18;;;;;;;32.53;23.03;;;10.10;99.90;;;;;;5044407;28;20282;-74
2023/04/16 03:22:45;;;;;;;34.27;22.57;;;10.10;99.90;;;;;;5046602;28;20564;-74
2023/04/16 03:25:10;;;;;;;30.90;21.57;;;10.10;99.90;;;;;;5044819;28;20285;-74
2023/04/16 03:27:38;;;;;;;33.93;22.60;;;10.10;99.90;;;;;;5049601;28;20282;-74
2023/04/16 03:30:09;;;;;;;31.83;21.10;;;10.00;99.90;;;;;;5071435;23;20227;-77
2023/04/16 03:32:36;;;;;;;32.93;21.17;;;9.90;99.90;;;;;;5046871;28;20211;-77
2023/04/16 03:35:05;;;;;;;29.77;20.97;;;9.90;99.90;;;;;;5046455;28;20203;-78
2023/04/16 03:37:31;;;;;;;32.67;21.07;;;9.90;99.90;;;;;;5044683;28;20196;-77
2023/04/16 03:39:57;;;;;;;28.83;20.00;;;9.90;99.90;;;;;;5044587;28;20320;-77
2023/04/16 03:42:22;;;;;;;32.17;20.23;;;9.80;99.90;;;;;;5035273;28;20266;-78
2023/04/16 03:44:48;;;;;;;30.97;21.10;;;9.80;99.90;;;;;;5043027;28;20211;-78
2023/04/16 03:47:14;;;;;;;31.00;20.57;;;9.80;99.90;;;;;;5036717;28;20318;-77
2023/04/16 03:49:40;;;;;;;27.00;19.07;;;9.80;99.90;;;;;;5035756;28;20757;-76
2023/04/16 03:52:05;;;;;;;28.87;19.33;;;9.70;99.90;;;;;;5044510;28;20275;-75
2023/04/16 03:54:31;;;;;;;28.70;19.93;;;9.80;99.90;;;;;;5042853;28;20639;-75
2023/04/16 03:56:56;;;;;;;33.13;21.00;;;9.90;99.90;;;;;;5043222;28;20625;-75
2023/04/16 03:59:22;;;;;;;30.10;19.57;;;9.90;99.90;;;;;;5042913;28;20645;-76
2023/04/16 04:01:48;;;;;;;25.90;19.03;;;9.90;99.90;;;;;;5043643;28;20200;-76
2023/04/16 04:04:14;;;;;;;30.10;19.73;;;9.90;99.90;;;;;;5035369;28;20180;-76
2023/04/16 04:06:39;;;;;;;28.40;19.10;;;9.90;99.90;;;;;;5047719;28;20176;-76
2023/04/16 04:09:06;;;;;;;30.10;20.30;;;9.90;99.90;;;;;;5038469;28;20228;-75
2023/04/16 04:11:31;;;;;;;27.20;18.97;;;9.90;99.90;;;;;;5039332;28;20282;-78
2023/04/16 04:13:57;;;;;;;33.23;20.23;;;9.90;99.90;;;;;;5038798;28;20699;-77
2023/04/16 04:16:22;;;;;;;28.77;19.17;;;9.90;99.90;;;;;;5040588;28;20254;-76
2023/04/16 04:18:48;;;;;;;30.00;20.10;;;9.90;99.90;;;;;;5034629;28;20184;-77
2023/04/16 04:21:14;;;;;;;31.87;20.40;;;9.80;99.90;;;;;;5034465;28;20270;-77
2023/04/16 04:23:41;;;;;;;34.60;21.33;;;9.80;99.90;;;;;;5042406;28;20223;-77
2023/04/16 04:26:07;;;;;;;29.40;20.07;;;9.80;99.90;;;;;;5035264;28;20756;-76
2023/04/16 04:28:33;;;;;;;34.77;21.83;;;9.80;99.90;;;;;;5031907;28;20212;-76
2023/04/16 04:30:59;;;;;;;33.73;21.37;;;9.80;99.90;;;;;;5035547;28;20220;-76
2023/04/16 04:33:25;;;;;;;32.43;21.67;;;9.80;99.90;;;;;;5039775;28;20214;-76
2023/04/16 04:35:51;;;;;;;37.67;22.10;;;9.80;99.90;;;;;;5044564;28;20263;-78
2023/04/16 04:38:20;;;;;;;33.47;22.17;;;9.70;99.90;;;;;;5036203;28;20197;-78
2023/04/16 04:40:47;;;;;;;34.97;23.47;;;9.70;99.90;;;;;;5042935;28;20276;-76
2023/04/16 04:43:12;;;;;;;37.47;22.70;;;9.70;99.90;;;;;;5039952;28;20555;-78
2023/04/16 04:45:38;;;;;;;34.53;22.60;;;9.80;99.90;;;;;;5041140;28;20174;-78
2023/04/16 04:48:04;;;;;;;33.50;22.83;;;9.80;99.90;;;;;;5039824;28;20566;-76
2023/04/16 04:50:29;;;;;;;34.83;23.20;;;9.80;99.90;;;;;;5040564;28;20300;-76
2023/04/16 04:52:55;;;;;;;33.47;22.67;;;9.80;99.90;;;;;;5042853;28;20231;-73
2023/04/16 04:55:20;;;;;;;37.53;23.07;;;9.80;99.90;;;;;;5037897;28;20228;-76
2023/04/16 04:57:47;;;;;;;36.10;23.57;;;9.80;99.90;;;;;;5046725;28;20181;-77
2023/04/16 05:00:13;;;;;;;34.80;22.87;;;9.80;99.90;;;;;;5039155;28;20216;-76
2023/04/16 05:02:38;;;;;;;35.67;22.43;;;9.80;99.90;;;;;;5035516;28;20802;-76
2023/04/16 05:05:04;;;;;;;33.60;22.40;;;9.80;99.90;;;;;;5035869;28;20208;-76
2023/04/16 05:07:31;;;;;;;36.90;22.03;;;9.90;99.90;;;;;;5037591;28;20711;-76
2023/04/16 05:09:56;;;;;;;35.33;21.80;;;9.90;99.90;;;;;;5036845;28;20572;-76
2023/04/16 05:12:22;;;;;;;34.43;21.73;;;9.90;99.90;;;;;;5040069;28;20212;-75
2023/04/16 05:14:48;;;;;;;35.57;21.73;;;9.90;99.90;;;;;;5037707;28;20256;-75
2023/04/16 05:17:13;;;;;;;32.90;20.47;;;9.80;99.90;;;;;;5039967;28;20231;-76
2023/04/16 05:19:39;;;;;;;29.27;20.53;;;9.80;99.90;;;;;;5037652;28;20234;-77
2023/04/16 05:22:05;;;;;;;34.87;22.87;;;9.80;99.90;;;;;;5037465;28;20194;-76
2023/04/16 05:24:31;;;;;;;32.60;21.50;;;9.80;99.90;;;;;;5040255;28;20218;-76
2023/04/16 05:26:56;;;;;;;32.00;20.97;;;9.80;99.90;;;;;;5048495;28;20237;-75
2023/04/16 05:29:22;;;;;;;29.80;20.70;;;9.80;99.90;;;;;;5037486;28;20220;-76
2023/04/16 05:31:48;;;;;;;29.80;19.80;;;9.80;99.90;;;;;;5048926;28;20214;-76
2023/04/16 05:34:14;;;;;;;31.87;20.07;;;9.80;99.90;;;;;;5042261;28;20196;-76
2023/04/16 05:36:39;;;;;;;31.80;19.87;;;9.90;99.90;;;;;;5044599;28;20250;-75
2023/04/16 05:39:06;;;;;;;27.40;19.40;;;9.90;99.90;;;;;;5043801;28;20210;-75
2023/04/16 05:41:32;;;;;;;30.57;20.37;;;9.80;99.90;;;;;;5047476;28;20304;-76
2023/04/16 05:43:58;;;;;;;31.63;19.33;;;9.90;99.90;;;;;;5040284;28;20208;-76
2023/04/16 05:46:23;;;;;;;29.27;19.40;;;9.90;99.90;;;;;;5034163;28;20255;-76
2023/04/16 05:48:49;;;;;;;27.43;19.80;;;10.00;99.90;;;;;;5042311;28;20294;-75
2023/04/16 05:51:15;;;;;;;30.27;19.40;;;10.10;99.90;;;;;;5049160;28;20199;-75
2023/04/16 05:53:40;;;;;;;28.60;19.53;;;10.00;99.90;;;;;;5060231;28;20729;-76
2023/04/16 05:56:07;;;;;;;28.93;19.27;;;10.00;99.90;;;;;;5042036;28;20207;-76
2023/04/16 05:58:32;;;;;;;28.80;19.37;;;9.90;99.90;;;;;;5043762;28;20253;-75
2023/04/16 06:00:59;;;;;;;30.23;18.47;;;9.90;99.90;;;;;;5042162;28;20573;-76
2023/04/16 06:03:25;;;;;;;27.83;17.20;;;10.00;99.90;;;;;;5039969;28;20290;-76
2023/04/16 06:05:51;;;;;;;24.27;17.27;;;10.00;99.90;;;;;;5034662;28;20235;-77
2023/04/16 06:08:17;;;;;;;28.77;17.93;;;10.00;99.90;;;;;;5035507;28;20212;-75
2023/04/16 06:10:44;;;;;;;27.30;17.80;;;10.10;99.90;;;;;;5035355;28;20208;-76
2023/04/16 06:13:10;;;;;;;23.00;15.80;;;10.10;99.90;;;;;;5041060;28;20206;-76
2023/04/16 06:15:35;;;;;;;23.90;17.57;;;10.10;99.90;;;;;;5038188;28;20247;-74
2023/04/16 06:18:01;;;;;;;22.50;16.67;;;10.10;99.90;;;;;;5046164;28;20211;-76
2023/04/16 06:20:27;;;;;;;24.13;16.37;;;10.10;99.90;;;;;;5034306;28;20208;-76
2023/04/16 06:22:52;;;;;;;24.87;17.17;;;10.10;99.90;;;;;;5034335;28;20211;-76
2023/04/16 06:25:18;;;;;;;26.07;17.07;;;10.20;99.90;;;;;;5038305;28;20238;-74
2023/04/16 06:27:43;;;;;;;29.97;18.13;;;10.10;99.90;;;;;;5044783;28;20199;-76
2023/04/16 06:30:13;;;;;;;26.93;17.33;;;10.20;99.90;;;;;;5036919;28;20224;-76
2023/04/16 06:32:39;;;;;;;27.37;18.43;;;10.20;99.90;;;;;;5043761;28;20205;-77
2023/04/16 06:35:05;;;;;;;23.53;16.93;;;10.20;99.90;;;;;;5037576;28;20214;-76
2023/04/16 06:37:31;;;;;;;27.43;17.30;;;10.10;99.90;;;;;;5044710;28;20214;-76
2023/04/16 06:39:56;;;;;;;26.57;17.20;;;10.20;99.90;;;;;;5041700;28;20196;-75
2023/04/16 06:42:22;;;;;;;23.40;16.57;;;10.30;99.90;;;;;;5042016;28;20318;-74
2023/04/16 06:44:48;;;;;;;24.03;16.67;;;10.20;99.90;;;;;;5033949;28;20211;-77
2023/04/16 06:47:15;;;;;;;23.33;17.13;;;10.20;99.90;;;;;;5036852;28;20361;-75
2023/04/16 06:49:40;;;;;;;28.70;18.13;;;10.20;99.90;;;;;;5038541;28;20655;-76
2023/04/16 06:52:06;;;;;;;28.17;18.17;;;10.20;99.90;;;;;;5037271;28;20216;-75
2023/04/16 06:54:32;;;;;;;24.83;17.27;;;10.20;99.90;;;;;;5039043;28;20216;-74
2023/04/16 06:56:57;;;;;;;24.73;17.97;;;10.20;99.90;;;;;;5036264;28;20205;-75
2023/04/16 06:59:23;;;;;;;27.27;18.40;;;10.20;99.90;;;;;;5046062;28;20204;-76
2023/04/16 07:01:48;;;;;;;28.97;18.93;;;10.20;99.90;;;;;;5040345;28;20248;-75
2023/04/16 07:04:14;;;;;;;25.70;17.53;;;10.20;99.90;;;;;;5041681;28;20671;-75
2023/04/16 07:06:40;;;;;;;27.33;18.47;;;10.30;99.90;;;;;;5052517;28;20174;-74
2023/04/16 07:09:05;;;;;;;28.63;18.80;;;10.30;99.90;;;;;;5051535;28;20215;-75
2023/04/16 07:11:31;;;;;;;30.60;19.07;;;10.20;99.90;;;;;;5050571;28;20278;-76
2023/04/16 07:13:57;;;;;;;29.40;18.80;;;10.30;99.90;;;;;;5050547;28;20200;-74
2023/04/16 07:16:23;;;;;;;25.87;17.83;;;10.30;99.90;;;;;;5037253;28;20204;-76
2023/04/16 07:18:49;;;;;;;28.53;19.27;;;10.30;99.90;;;;;;5037361;28;20666;-75
2023/04/16 07:21:14;;;;;;;28.70;18.67;;;10.30;99.90;;;;;;5047894;28;20713;-75
2023/04/16 07:23:40;;;;;;;28.60;19.37;;;10.30;99.90;;;;;;5038688;28;20215;-75
2023/04/16 07:26:06;;;;;;;26.90;18.63;;;10.40;99.90;;;;;;5032866;28;20223;-73
2023/04/16 07:28:31;;;;;;;28.73;18.03;;;10.40;99.90;;;;;;5039549;28;20289;-75
2023/04/16 07:30:57;;;;;;;28.40;19.07;;;10.40;99.90;;;;;;5038024;28;20718;-74
2023/04/16 07:33:23;;;;;;;24.50;17.73;;;10.30;99.90;;;;;;5036652;28;20216;-75
2023/04/16 07:35:50;;;;;;;31.00;19.57;;;10.40;99.90;;;;;;5049201;28;20306;-74
2023/04/16 07:38:15;;;;;;;29.43;18.53;;;10.40;99.90;;;;;;5039655;28;20239;-76
2023/04/16 07:40:41;;;;;;;26.47;18.17;;;10.30;99.90;;;;;;5040154;28;20235;-76
2023/04/16 07:43:07;;;;;;;26.77;17.10;;;10.40;99.90;;;;;;5033482;28;20172;-76
2023/04/16 07:45:32;;;;;;;26.07;18.57;;;10.40;99.90;;;;;;5042473;28;20259;-77
2023/04/16 07:47:58;;;;;;;26.83;17.33;;;10.30;99.90;;;;;;5043431;28;20315;-74
2023/04/16 07:50:24;;;;;;;23.37;16.13;;;10.30;99.90;;;;;;5040431;28;20208;-75
2023/04/16 07:52:50;;;;;;;25.17;16.37;;;10.20;99.90;;;;;;5039444;28;20215;-75
2023/04/16 07:55:16;;;;;;;25.23;16.53;;;10.20;99.90;;;;;;5039261;28;20188;-75
2023/04/16 07:57:41;;;;;;;27.53;16.30;;;10.30;99.90;;;;;;5041832;28;20258;-74
2023/04/16 08:00:08;;;;;;;28.47;17.80;;;10.30;99.90;;;;;;5039688;28;20299;-76
2023/04/16 08:02:34;;;;;;;26.63;17.00;;;10.30;99.90;;;;;;5035426;28;20295;-76
2023/04/16 08:05:00;;;;;;;26.07;15.77;;;10.30;99.90;;;;;;5039768;28;20817;-76
2023/04/16 08:07:25;;;;;;;24.83;16.20;;;10.40;99.90;;;;;;5037378;28;20212;-76
2023/04/16 08:09:52;;;;;;;25.77;17.10;;;10.30;99.90;;;;;;5051040;28;20195;-74
2023/04/16 08:12:17;;;;;;;25.97;16.20;;;10.30;99.90;;;;;;5031438;28;20740;-76
2023/04/16 08:14:44;;;;;;;24.37;17.10;;;10.40;99.90;;;;;;5041550;28;20200;-76
2023/04/16 08:17:14;;;;;;;24.17;15.77;;;10.40;99.90;;;;;;5036317;28;20210;-76
2023/04/16 08:19:39;;;;;;;24.80;16.47;;;10.40;99.90;;;;;;5035735;28;20219;-77
2023/04/16 08:22:05;;;;;;;21.43;14.43;;;10.40;99.90;;;;;;5044702;28;20593;-76
2023/04/16 08:24:31;;;;;;;24.67;16.87;;;10.40;99.90;;;;;;5043042;28;20676;-75
2023/04/16 08:26:56;;;;;;;20.87;14.93;;;10.40;99.90;;;;;;5045277;28;20208;-75
2023/04/16 08:29:25;;;;;;;21.90;14.57;;;10.40;99.90;;;;;;5039778;28;20223;-74
2023/04/16 08:31:51;;;;;;;21.77;15.13;;;10.30;99.90;;;;;;5049176;28;20269;-75
2023/04/16 08:34:16;;;;;;;22.87;16.00;;;10.30;99.90;;;;;;5046904;28;20183;-75
2023/04/16 08:36:42;;;;;;;25.30;15.17;;;10.40;99.90;;;;;;5047417;28;20659;-75
2023/04/16 08:39:08;;;;;;;23.30;15.30;;;10.50;99.90;;;;;;5035503;28;20219;-76
2023/04/16 08:41:35;;;;;;;20.53;13.93;;;10.40;99.90;;;;;;5038497;28;20208;-75
2023/04/16 08:44:06;;;;;;;22.03;15.13;;;10.40;99.90;;;;;;5049909;28;20219;-74
2023/04/16 08:46:35;;;;;;;19.47;13.83;;;10.50;99.90;;;;;;5039458;28;20286;-76
2023/04/16 08:49:04;;;;;;;19.13;13.40;;;10.50;99.90;;;;;;5037955;28;20204;-76
2023/04/16 08:51:34;;;;;;;18.87;13.90;;;10.40;99.90;;;;;;5036025;28;20180;-76
2023/04/16 08:54:03;;;;;;;18.70;13.90;;;10.50;99.90;;;;;;5042483;28;20203;-74
2023/04/16 08:56:31;;;;;;;20.47;13.87;;;10.50;99.90;;;;;;5031665;28;20258;-75
2023/04/16 08:58:57;;;;;;;20.23;14.50;;;10.50;99.90;;;;;;5041326;28;20716;-74
2023/04/16 09:01:25;;;;;;;20.73;14.47;;;10.40;99.90;;;;;;5039229;28;20284;-75
2023/04/16 09:03:51;;;;;;;21.27;15.17;;;10.40;99.90;;;;;;5059787;28;20252;-75
2023/04/16 09:06:17;;;;;;;23.10;16.30;;;10.50;99.90;;;;;;5038393;28;20220;-75
2023/04/16 09:08:45;;;;;;;20.13;15.10;;;10.50;99.90;;;;;;5045106;28;20706;-75
2023/04/16 09:11:12;;;;;;;19.80;14.67;;;10.50;99.90;;;;;;5044309;28;20227;-75
2023/04/16 09:13:38;;;;;;;22.10;14.53;;;10.60;99.90;;;;;;5039436;28;20208;-75
2023/04/16 09:16:06;;;;;;;17.37;13.40;;;10.70;99.90;;;;;;5043359;28;20202;-76
2023/04/16 09:18:31;;;;;;;18.43;13.93;;;10.70;99.90;;;;;;5037776;28;20727;-75
2023/04/16 09:20:57;;;;;;;23.20;13.40;;;10.80;99.90;;;;;;5046233;28;20231;-76
2023/04/16 09:23:23;;;;;;;18.90;13.37;;;10.80;99.90;;;;;;5037372;28;20259;-76
2023/04/16 09:25:49;;;;;;;19.43;14.27;;;10.90;99.90;;;;;;5045515;28;20211;-74
2023/04/16 09:28:40;;;;;;;17.27;12.93;;;10.90;99.90;;;;;;5047449;28;20204;-75
2023/04/16 09:31:14;;;;;;;18.90;13.13;;;10.90;99.90;;;;;;5041953;28;20216;-76
2023/04/16 09:33:41;;;;;;;18.43;12.67;;;10.80;99.90;;;;;;5043449;28;20544;-76
2023/04/16 09:36:08;;;;;;;17.70;13.20;;;10.80;99.90;;;;;;5040832;28;20626;-76
2023/04/16 09:38:50;;;;;;;18.47;13.97;;;10.70;99.90;;;;;;5032686;28;20208;-75
2023/04/16 09:41:16;;;;;;;16.97;12.80;;;10.80;99.90;;;;;;5030303;28;20295;-75
2023/04/16 09:43:55;;;;;;;17.07;12.57;;;10.70;99.90;;;;;;5040793;28;20216;-74
2023/04/16 09:46:20;;;;;;;18.33;14.13;;;10.70;99.90;;;;;;5042353;28;20212;-75
2023/04/16 09:48:46;;;;;;;19.63;15.07;;;10.80;99.90;;;;;;5044809;28;20230;-75
2023/04/16 09:51:12;;;;;;;23.90;15.33;;;10.80;99.90;;;;;;5034770;28;20201;-76
2023/04/16 09:53:37;;;;;;;19.57;14.40;;;10.80;99.90;;;;;;5037009;28;20211;-76
2023/04/16 09:56:05;;;;;;;20.23;14.27;;;10.80;99.90;;;;;;5037050;28;20208;-76
2023/04/16 09:58:31;;;;;;;23.30;14.50;;;10.80;99.90;;;;;;5043866;28;20208;-75
2023/04/16 10:01:01;;;;;;;20.43;14.03;;;10.90;99.90;;;;;;5041017;28;20256;-75
2023/04/16 10:03:34;;;;;;;21.57;15.07;;;10.90;99.90;;;;;;5042538;28;20200;-75
2023/04/16 10:06:07;;;;;;;21.50;14.53;;;10.80;99.90;;;;;;5040403;28;20239;-75
2023/04/16 10:08:33;;;;;;;22.73;15.50;;;10.90;99.90;;;;;;5031737;28;20212;-76
2023/04/16 10:10:59;;;;;;;24.17;15.63;;;10.90;99.90;;;;;;5044582;28;20215;-76
2023/04/16 10:13:29;;;;;;;24.83;16.23;;;11.00;99.90;;;;;;5034292;28;20208;-76
2023/04/16 10:15:56;;;;;;;24.43;17.30;;;11.00;99.90;;;;;;5043432;28;20176;-74
2023/04/16 10:18:22;;;;;;;23.30;16.20;;;11.20;99.90;;;;;;5038087;28;20203;-75
2023/04/16 10:20:51;;;;;;;24.43;16.47;;;11.40;99.90;;;;;;5038899;28;20212;-75
2023/04/16 10:23:21;;;;;;;33.17;21.67;;;11.30;99.90;;;;;;5037932;28;20204;-76
2023/04/16 10:25:48;;;;;;;28.40;18.43;;;11.40;99.90;;;;;;5047252;28;20235;-76
2023/04/16 10:28:15;;;;;;;25.77;17.27;;;11.50;99.90;;;;;;5048854;28;20302;-76
2023/04/16 10:30:51;;;;;;;23.50;16.30;;;11.50;99.90;;;;;;5044465;28;20261;-77
2023/04/16 10:33:19;;;;;;;26.27;16.47;;;11.50;99.90;;;;;;5040082;28;20224;-76
2023/04/16 10:35:45;;;;;;;23.83;19.02;;;11.40;99.90;;;;;;5040973;28;20825;-77
2023/04/16 10:38:41;;;;;;;24.60;16.70;;;11.40;99.90;;;;;;5041706;28;20200;-77
2023/04/16 10:41:10;;;;;;;25.47;17.47;;;11.30;99.90;;;;;;5044517;28;20648;-76
2023/04/16 10:43:44;;;;;;;26.70;18.10;;;11.30;99.90;;;;;;5044599;28;20211;-76
2023/04/16 10:46:25;;;;;;;27.13;18.37;;;11.20;99.90;;;;;;5047936;28;20195;-76
2023/04/16 10:48:55;;;;;;;26.00;18.63;;;11.20;99.90;;;;;;5046098;28;20299;-76
2023/04/16 10:51:30;;;;;;;26.67;17.50;;;11.30;99.90;;;;;;5048544;28;20282;-74
2023/04/16 10:54:07;;;;;;;27.07;18.33;;;11.30;99.90;;;;;;5037694;28;20203;-74
2023/04/16 10:56:34;;;;;;;25.53;17.50;;;11.40;99.90;;;;;;5052095;28;20195;-75
2023/04/16 10:59:03;;;;;;;25.90;17.53;;;11.40;99.90;;;;;;5033271;28;20250;-75
2023/04/16 11:01:35;;;;;;;26.60;17.93;;;11.40;99.90;;;;;;5041016;28;20288;-76
2023/04/16 11:04:19;;;;;;;23.13;17.13;;;11.60;99.90;;;;;;5041724;28;20219;-77
2023/04/16 11:07:06;;;;;;;23.37;17.57;;;11.60;99.90;;;;;;5049474;28;20200;-76
2023/04/16 11:09:55;;;;;;;23.23;16.25;;;11.80;99.90;;;;;;5036692;28;20616;-74
2023/04/16 11:12:39;;;;;;;21.43;16.63;;;11.90;99.90;;;;;;5037779;28;20212;-76
2023/04/16 11:15:13;;;;;;;23.27;17.02;;;12.00;99.90;;;;;;5041191;28;20200;-77
2023/04/16 11:17:47;;;;;;;22.02;16.48;;;12.10;99.90;;;;;;5039666;28;20614;-76
2023/04/16 11:20:21;;;;;;;22.10;16.20;;;12.10;99.90;;;;;;5044627;28;20287;-74
2023/04/16 11:22:48;;;;;;;22.98;17.45;;;12.20;99.90;;;;;;5038209;28;20229;-75
2023/04/16 11:25:21;;;;;;;22.05;16.48;;;12.30;99.90;;;;;;5047237;28;20622;-75
2023/04/16 11:27:47;;;;;;;21.80;16.75;;;12.20;99.90;;;;;;5047583;28;20204;-75
2023/04/16 11:30:13;;;;;;;22.17;16.23;;;12.30;99.90;;;;;;5040255;28;20211;-75
2023/04/16 11:32:39;;;;;;;25.63;18.15;;;12.20;99.90;;;;;;5037683;28;20250;-75
2023/04/16 11:35:14;;;;;;;25.83;18.27;;;12.20;99.90;;;;;;5044058;28;20211;-76
2023/04/16 11:37:41;;;;;;;22.53;16.03;;;12.00;99.90;;;;;;5048619;28;20211;-74
2023/04/16 11:40:10;;;;;;;17.90;14.25;;;12.00;99.90;;;;;;5044352;28;20283;-75
2023/04/16 11:42:39;;;;;;;21.63;15.60;;;11.90;99.90;;;;;;5034007;28;20204;-77
2023/04/16 11:45:06;;;;;;;20.03;15.73;;;11.90;99.90;;;;;;5047512;28;20207;-76
2023/04/16 11:47:51;;;;;;;21.05;14.70;;;11.80;99.90;;;;;;5041440;28;20627;-76
2023/04/16 11:50:22;;;;;;;17.53;14.43;;;11.80;99.90;;;;;;5040063;28;20208;-76
2023/04/16 11:52:49;;;;;;;20.30;13.57;;;11.80;99.90;;;;;;5051987;28;20204;-76
2023/04/16 11:55:15;;;;;;;14.63;12.00;;;11.80;99.90;;;;;;5045628;28;20195;-76
2023/04/16 11:57:40;;;;;;;16.27;13.07;;;11.70;99.90;;;;;;5045005;28;20265;-76
2023/04/16 12:00:12;;;;;;;13.27;10.80;;;11.70;99.90;;;;;;5037078;28;20212;-75
2023/04/16 12:02:57;;;;;;;15.20;11.80;;;11.80;99.90;;;;;;5046809;28;20204;-76
2023/04/16 12:05:34;;;;;;;14.03;11.23;;;11.80;99.90;;;;;;5042915;28;20211;-76
2023/04/16 12:08:10;;;;;;;13.13;10.93;;;11.90;99.90;;;;;;5040721;28;20590;-75
2023/04/16 12:10:52;;;;;;;15.00;10.70;;;11.80;99.90;;;;;;5043871;28;20306;-77
2023/04/16 12:13:18;;;;;;;14.53;11.30;;;11.70;99.90;;;;;;5042215;28;20536;-76
2023/04/16 12:15:55;;;;;;;12.97;10.63;;;11.60;99.90;;;;;;5051226;28;20179;-76
2023/04/16 12:18:25;;;;;;;14.40;10.77;;;11.50;99.90;;;;;;5040209;28;20340;-76
2023/04/16 12:20:50;;;;;;;12.80;11.00;;;11.50;99.90;;;;;;5042550;28;20216;-75
2023/04/16 12:23:32;;;;;;;14.63;11.33;;;11.50;99.90;;;;;;5039006;28;20212;-76
2023/04/16 12:26:09;;;;;;;13.60;10.10;;;11.50;99.90;;;;;;5050401;28;20196;-75
2023/04/16 12:28:37;;;;;;;12.43;9.13;;;11.40;99.90;;;;;;5038774;28;20212;-76